sensor_id;sensor_type;location;lat;lon;timestamp;pressure;altitude;pressure_sealevel;temperature;humidity
50368;BME280;36281;34.132;-118.018;2023-07-29T00:00:09;99749.81;;;31.94;44.81
50368;BME280;36281;34.132;-118.018;2023-07-29T00:02:41;99754.69;;;31.85;44.20
50368;BME280;36281;34.132;-118.018;2023-07-29T00:05:10;99759.00;;;31.86;44.00
50368;BME280;36281;34.132;-118.018;2023-07-29T00:07:39;99756.28;;;31.70;44.04
50368;BME280;36281;34.132;-118.018;2023-07-29T00:10:10;99755.25;;;31.59;44.10
50368;BME280;36281;34.132;-118.018;2023-07-29T00:12:39;99767.16;;;31.51;44.81
50368;BME280;36281;34.132;-118.018;2023-07-29T00:15:09;99767.53;;;31.49;44.79
50368;BME280;36281;34.132;-118.018;2023-07-29T00:17:38;99762.66;;;31.43;44.97
50368;BME280;36281;34.132;-118.018;2023-07-29T00:20:07;99769.00;;;31.47;45.03
50368;BME280;36281;34.132;-118.018;2023-07-29T00:22:37;99765.75;;;31.41;44.71
50368;BME280;36281;34.132;-118.018;2023-07-29T00:25:06;99769.91;;;31.35;44.65
50368;BME280;36281;34.132;-118.018;2023-07-29T00:27:37;99775.66;;;31.30;44.91
50368;BME280;36281;34.132;-118.018;2023-07-29T00:30:07;99769.63;;;31.24;45.30
50368;BME280;36281;34.132;-118.018;2023-07-29T00:32:36;99767.81;;;31.28;45.58
50368;BME280;36281;34.132;-118.018;2023-07-29T00:35:07;99764.59;;;31.26;45.48
50368;BME280;36281;34.132;-118.018;2023-07-29T00:37:36;99758.16;;;31.19;45.68
50368;BME280;36281;34.132;-118.018;2023-07-29T00:40:14;99765.09;;;31.16;45.33
50368;BME280;36281;34.132;-118.018;2023-07-29T00:42:46;99753.78;;;31.18;45.44
50368;BME280;36281;34.132;-118.018;2023-07-29T00:45:15;99755.31;;;31.15;45.46
50368;BME280;36281;34.132;-118.018;2023-07-29T00:47:44;99759.63;;;31.16;45.76
50368;BME280;36281;34.132;-118.018;2023-07-29T00:50:15;99759.38;;;31.21;45.81
50368;BME280;36281;34.132;-118.018;2023-07-29T00:52:44;99755.75;;;31.17;45.28
50368;BME280;36281;34.132;-118.018;2023-07-29T00:55:13;99752.56;;;31.15;45.69
50368;BME280;36281;34.132;-118.018;2023-07-29T00:57:42;99757.16;;;31.11;45.18
50368;BME280;36281;34.132;-118.018;2023-07-29T01:00:18;99746.38;;;31.02;45.93
50368;BME280;36281;34.132;-118.018;2023-07-29T01:02:47;99745.53;;;30.98;45.62
50368;BME280;36281;34.132;-118.018;2023-07-29T01:05:17;99739.06;;;30.91;45.59
50368;BME280;36281;34.132;-118.018;2023-07-29T01:07:51;99731.53;;;30.72;45.72
50368;BME280;36281;34.132;-118.018;2023-07-29T01:10:31;99727.31;;;30.62;46.45
50368;BME280;36281;34.132;-118.018;2023-07-29T01:13:08;99736.25;;;30.59;47.02
50368;BME280;36281;34.132;-118.018;2023-07-29T01:15:45;99729.88;;;30.55;46.52
50368;BME280;36281;34.132;-118.018;2023-07-29T01:18:22;99727.28;;;30.46;47.19
50368;BME280;36281;34.132;-118.018;2023-07-29T01:20:53;99735.06;;;30.44;47.17
50368;BME280;36281;34.132;-118.018;2023-07-29T01:23:29;99726.59;;;30.49;47.04
50368;BME280;36281;34.132;-118.018;2023-07-29T01:25:59;99728.97;;;30.51;47.33
50368;BME280;36281;34.132;-118.018;2023-07-29T01:28:28;99722.72;;;30.50;47.31
50368;BME280;36281;34.132;-118.018;2023-07-29T01:31:03;99722.44;;;30.40;47.28
50368;BME280;36281;34.132;-118.018;2023-07-29T01:33:40;99719.94;;;30.34;47.42
50368;BME280;36281;34.132;-118.018;2023-07-29T01:36:15;99721.31;;;30.28;47.73
50368;BME280;36281;34.132;-118.018;2023-07-29T01:38:50;99728.28;;;30.26;47.62
50368;BME280;36281;34.132;-118.018;2023-07-29T01:41:20;99728.09;;;30.19;47.80
50368;BME280;36281;34.132;-118.018;2023-07-29T01:43:50;99731.06;;;30.14;47.49
50368;BME280;36281;34.132;-118.018;2023-07-29T01:46:21;99731.50;;;30.03;48.20
50368;BME280;36281;34.132;-118.018;2023-07-29T01:48:50;99726.41;;;29.90;48.48
50368;BME280;36281;34.132;-118.018;2023-07-29T01:51:19;99730.97;;;29.85;48.41
50368;BME280;36281;34.132;-118.018;2023-07-29T01:53:51;99730.97;;;29.85;48.92
50368;BME280;36281;34.132;-118.018;2023-07-29T01:56:20;99732.13;;;29.84;49.14
50368;BME280;36281;34.132;-118.018;2023-07-29T01:58:50;99738.94;;;29.78;48.90
50368;BME280;36281;34.132;-118.018;2023-07-29T02:01:19;99738.72;;;29.71;48.71
50368;BME280;36281;34.132;-118.018;2023-07-29T02:03:48;99737.47;;;29.69;48.82
50368;BME280;36281;34.132;-118.018;2023-07-29T02:06:22;99737.38;;;29.65;49.22
50368;BME280;36281;34.132;-118.018;2023-07-29T02:08:53;99749.19;;;29.57;49.39
50368;BME280;36281;34.132;-118.018;2023-07-29T02:11:22;99742.44;;;29.42;49.59
50368;BME280;36281;34.132;-118.018;2023-07-29T02:13:56;99741.19;;;29.27;50.18
50368;BME280;36281;34.132;-118.018;2023-07-29T02:16:25;99750.28;;;29.19;51.01
50368;BME280;36281;34.132;-118.018;2023-07-29T02:18:54;99750.69;;;29.09;51.25
50368;BME280;36281;34.132;-118.018;2023-07-29T02:21:23;99756.38;;;29.04;51.46
50368;BME280;36281;34.132;-118.018;2023-07-29T02:23:54;99747.16;;;28.96;52.16
50368;BME280;36281;34.132;-118.018;2023-07-29T02:26:23;99752.00;;;28.91;52.45
50368;BME280;36281;34.132;-118.018;2023-07-29T02:28:52;99758.81;;;28.84;52.55
50368;BME280;36281;34.132;-118.018;2023-07-29T02:31:22;99756.97;;;28.76;52.66
50368;BME280;36281;34.132;-118.018;2023-07-29T02:33:51;99763.19;;;28.65;53.12
50368;BME280;36281;34.132;-118.018;2023-07-29T02:36:20;99761.19;;;28.53;53.78
50368;BME280;36281;34.132;-118.018;2023-07-29T02:38:49;99766.09;;;28.39;54.25
50368;BME280;36281;34.132;-118.018;2023-07-29T02:41:20;99768.59;;;28.23;54.33
50368;BME280;36281;34.132;-118.018;2023-07-29T02:43:50;99768.56;;;28.11;55.07
50368;BME280;36281;34.132;-118.018;2023-07-29T02:46:45;99780.13;;;27.99;54.90
50368;BME280;36281;34.132;-118.018;2023-07-29T02:49:59;99785.97;;;27.89;55.29
50368;BME280;36281;34.132;-118.018;2023-07-29T02:54:11;99782.69;;;27.74;56.28
50368;BME280;36281;34.132;-118.018;2023-07-29T02:56:31;99787.06;;;27.58;56.76
50368;BME280;36281;34.132;-118.018;2023-07-29T02:59:12;99789.69;;;27.46;57.00
50368;BME280;36281;34.132;-118.018;2023-07-29T03:02:31;99783.16;;;27.29;57.51
50368;BME280;36281;34.132;-118.018;2023-07-29T03:05:41;99792.34;;;27.16;58.22
50368;BME280;36281;34.132;-118.018;2023-07-29T03:09:01;99802.75;;;26.97;59.00
50368;BME280;36281;34.132;-118.018;2023-07-29T03:12:16;99798.75;;;26.86;59.44
50368;BME280;36281;34.132;-118.018;2023-07-29T03:14:48;99798.59;;;26.82;59.60
50368;BME280;36281;34.132;-118.018;2023-07-29T03:17:17;99803.41;;;26.76;60.00
50368;BME280;36281;34.132;-118.018;2023-07-29T03:19:46;99805.78;;;26.69;60.32
50368;BME280;36281;34.132;-118.018;2023-07-29T03:22:15;99806.44;;;26.58;60.65
50368;BME280;36281;34.132;-118.018;2023-07-29T03:24:44;99817.13;;;26.54;60.98
50368;BME280;36281;34.132;-118.018;2023-07-29T03:27:15;99819.38;;;26.43;61.33
50368;BME280;36281;34.132;-118.018;2023-07-29T03:29:44;99827.63;;;26.29;61.86
50368;BME280;36281;34.132;-118.018;2023-07-29T03:32:13;99821.38;;;26.20;61.96
50368;BME280;36281;34.132;-118.018;2023-07-29T03:34:42;99827.78;;;26.16;62.61
50368;BME280;36281;34.132;-118.018;2023-07-29T03:37:11;99823.31;;;26.11;62.72
50368;BME280;36281;34.132;-118.018;2023-07-29T03:39:40;99832.69;;;26.05;62.96
50368;BME280;36281;34.132;-118.018;2023-07-29T03:42:09;99838.91;;;25.97;63.22
50368;BME280;36281;34.132;-118.018;2023-07-29T03:44:40;99832.97;;;25.86;63.65
50368;BME280;36281;34.132;-118.018;2023-07-29T03:47:09;99843.78;;;25.77;64.13
50368;BME280;36281;34.132;-118.018;2023-07-29T03:49:38;99846.28;;;25.74;64.54
50368;BME280;36281;34.132;-118.018;2023-07-29T03:52:07;99841.19;;;25.72;64.48
50368;BME280;36281;34.132;-118.018;2023-07-29T03:54:36;99845.00;;;25.71;64.44
50368;BME280;36281;34.132;-118.018;2023-07-29T03:57:06;99836.38;;;25.69;64.46
50368;BME280;36281;34.132;-118.018;2023-07-29T03:59:35;99841.31;;;25.67;64.71
50368;BME280;36281;34.132;-118.018;2023-07-29T04:02:06;99849.09;;;25.60;65.08
50368;BME280;36281;34.132;-118.018;2023-07-29T04:04:37;99851.59;;;25.48;65.27
50368;BME280;36281;34.132;-118.018;2023-07-29T04:07:16;99859.53;;;25.44;65.81
50368;BME280;36281;34.132;-118.018;2023-07-29T04:09:45;99861.25;;;25.40;66.09
50368;BME280;36281;34.132;-118.018;2023-07-29T04:12:15;99848.47;;;25.32;66.40
50368;BME280;36281;34.132;-118.018;2023-07-29T04:14:52;99852.59;;;25.30;66.54
50368;BME280;36281;34.132;-118.018;2023-07-29T04:17:28;99864.69;;;25.23;66.58
50368;BME280;36281;34.132;-118.018;2023-07-29T04:20:02;99875.97;;;25.17;67.16
50368;BME280;36281;34.132;-118.018;2023-07-29T04:22:40;99871.03;;;25.19;67.12
50368;BME280;36281;34.132;-118.018;2023-07-29T04:25:25;99871.59;;;25.07;67.25
50368;BME280;36281;34.132;-118.018;2023-07-29T04:27:56;99878.38;;;25.05;67.52
50368;BME280;36281;34.132;-118.018;2023-07-29T04:30:46;99884.56;;;24.96;67.79
50368;BME280;36281;34.132;-118.018;2023-07-29T04:34:19;99881.78;;;24.88;68.18
50368;BME280;36281;34.132;-118.018;2023-07-29T04:37:29;99887.19;;;24.88;68.40
50368;BME280;36281;34.132;-118.018;2023-07-29T04:40:26;99889.25;;;24.91;68.72
50368;BME280;36281;34.132;-118.018;2023-07-29T04:43:20;99891.38;;;24.94;68.39
50368;BME280;36281;34.132;-118.018;2023-07-29T04:46:19;99880.16;;;24.87;68.90
50368;BME280;36281;34.132;-118.018;2023-07-29T04:49:33;99893.84;;;24.82;68.97
50368;BME280;36281;34.132;-118.018;2023-07-29T04:53:02;99879.53;;;24.67;69.04
50368;BME280;36281;34.132;-118.018;2023-07-29T04:55:33;99904.78;;;24.77;69.06
50368;BME280;36281;34.132;-118.018;2023-07-29T04:59:16;99895.66;;;24.72;69.31
50368;BME280;36281;34.132;-118.018;2023-07-29T05:01:41;99900.69;;;24.65;69.95
50368;BME280;36281;34.132;-118.018;2023-07-29T05:04:14;99894.88;;;24.58;70.36
50368;BME280;36281;34.132;-118.018;2023-07-29T05:06:57;99892.50;;;24.57;70.35
50368;BME280;36281;34.132;-118.018;2023-07-29T05:09:38;99895.78;;;24.54;70.08
50368;BME280;36281;34.132;-118.018;2023-07-29T05:12:34;99895.59;;;24.50;70.69
50368;BME280;36281;34.132;-118.018;2023-07-29T05:15:15;99894.59;;;24.46;70.58
50368;BME280;36281;34.132;-118.018;2023-07-29T05:18:18;99883.88;;;24.41;70.69
50368;BME280;36281;34.132;-118.018;2023-07-29T05:21:08;99892.09;;;24.36;71.34
50368;BME280;36281;34.132;-118.018;2023-07-29T05:23:53;99887.28;;;24.33;71.45
50368;BME280;36281;34.132;-118.018;2023-07-29T05:26:43;99887.66;;;24.26;71.54
50368;BME280;36281;34.132;-118.018;2023-07-29T05:29:15;99890.09;;;24.28;71.69
50368;BME280;36281;34.132;-118.018;2023-07-29T05:31:44;99889.56;;;24.25;72.03
50368;BME280;36281;34.132;-118.018;2023-07-29T05:34:13;99883.97;;;24.22;72.13
50368;BME280;36281;34.132;-118.018;2023-07-29T05:36:42;99886.47;;;24.18;71.90
50368;BME280;36281;34.132;-118.018;2023-07-29T05:39:13;99883.25;;;24.16;72.20
50368;BME280;36281;34.132;-118.018;2023-07-29T05:41:42;99888.06;;;24.19;72.27
50368;BME280;36281;34.132;-118.018;2023-07-29T05:44:11;99895.41;;;24.19;72.47
50368;BME280;36281;34.132;-118.018;2023-07-29T05:46:40;99882.19;;;24.17;72.70
50368;BME280;36281;34.132;-118.018;2023-07-29T05:49:09;99880.44;;;24.21;72.47
50368;BME280;36281;34.132;-118.018;2023-07-29T05:51:38;99872.94;;;24.18;72.31
50368;BME280;36281;34.132;-118.018;2023-07-29T05:54:07;99880.28;;;24.18;72.32
50368;BME280;36281;34.132;-118.018;2023-07-29T05:56:38;99870.84;;;24.15;72.92
50368;BME280;36281;34.132;-118.018;2023-07-29T05:59:07;99868.66;;;24.17;72.85
50368;BME280;36281;34.132;-118.018;2023-07-29T06:01:35;99872.25;;;24.13;72.73
50368;BME280;36281;34.132;-118.018;2023-07-29T06:04:05;99869.22;;;24.01;73.08
50368;BME280;36281;34.132;-118.018;2023-07-29T06:06:34;99877.56;;;24.04;73.07
50368;BME280;36281;34.132;-118.018;2023-07-29T06:09:04;99878.16;;;24.01;73.35
50368;BME280;36281;34.132;-118.018;2023-07-29T06:11:33;99875.25;;;23.97;73.20
50368;BME280;36281;34.132;-118.018;2023-07-29T06:14:03;99872.03;;;23.95;73.74
50368;BME280;36281;34.132;-118.018;2023-07-29T06:16:32;99875.53;;;23.96;73.61
50368;BME280;36281;34.132;-118.018;2023-07-29T06:19:02;99876.06;;;23.98;73.58
50368;BME280;36281;34.132;-118.018;2023-07-29T06:21:31;99873.63;;;23.96;73.68
50368;BME280;36281;34.132;-118.018;2023-07-29T06:24:00;99872.66;;;23.92;73.93
50368;BME280;36281;34.132;-118.018;2023-07-29T06:26:29;99881.06;;;23.91;73.73
50368;BME280;36281;34.132;-118.018;2023-07-29T06:28:58;99874.94;;;23.85;74.26
50368;BME280;36281;34.132;-118.018;2023-07-29T06:31:28;99874.63;;;23.87;73.90
50368;BME280;36281;34.132;-118.018;2023-07-29T06:33:58;99871.75;;;23.83;74.40
50368;BME280;36281;34.132;-118.018;2023-07-29T06:36:27;99882.03;;;23.81;74.28
50368;BME280;36281;34.132;-118.018;2023-07-29T06:38:56;99869.84;;;23.84;74.13
50368;BME280;36281;34.132;-118.018;2023-07-29T06:41:25;99869.31;;;23.82;74.40
50368;BME280;36281;34.132;-118.018;2023-07-29T06:43:54;99878.34;;;23.77;74.26
50368;BME280;36281;34.132;-118.018;2023-07-29T06:46:23;99880.22;;;23.77;74.38
50368;BME280;36281;34.132;-118.018;2023-07-29T06:48:54;99867.22;;;23.79;74.38
50368;BME280;36281;34.132;-118.018;2023-07-29T06:51:23;99863.72;;;23.78;74.81
50368;BME280;36281;34.132;-118.018;2023-07-29T06:53:52;99867.91;;;23.70;74.88
50368;BME280;36281;34.132;-118.018;2023-07-29T06:56:21;99867.13;;;23.70;74.83
50368;BME280;36281;34.132;-118.018;2023-07-29T06:58:51;99862.00;;;23.68;75.07
50368;BME280;36281;34.132;-118.018;2023-07-29T07:01:20;99862.28;;;23.67;75.38
50368;BME280;36281;34.132;-118.018;2023-07-29T07:03:49;99862.59;;;23.65;75.66
50368;BME280;36281;34.132;-118.018;2023-07-29T07:06:20;99865.06;;;23.62;75.71
50368;BME280;36281;34.132;-118.018;2023-07-29T07:08:50;99870.06;;;23.55;76.00
50368;BME280;36281;34.132;-118.018;2023-07-29T07:11:19;99868.47;;;23.54;76.05
50368;BME280;36281;34.132;-118.018;2023-07-29T07:13:48;99874.09;;;23.57;76.08
50368;BME280;36281;34.132;-118.018;2023-07-29T07:16:17;99881.38;;;23.57;75.62
50368;BME280;36281;34.132;-118.018;2023-07-29T07:18:46;99886.88;;;23.52;75.69
50368;BME280;36281;34.132;-118.018;2023-07-29T07:21:15;99893.69;;;23.49;75.85
50368;BME280;36281;34.132;-118.018;2023-07-29T07:23:45;99894.47;;;23.50;75.96
50368;BME280;36281;34.132;-118.018;2023-07-29T07:26:14;99903.91;;;23.52;76.46
50368;BME280;36281;34.132;-118.018;2023-07-29T07:28:44;99904.72;;;23.53;76.38
50368;BME280;36281;34.132;-118.018;2023-07-29T07:31:12;99900.91;;;23.54;75.85
50368;BME280;36281;34.132;-118.018;2023-07-29T07:33:44;99896.16;;;23.45;76.33
50368;BME280;36281;34.132;-118.018;2023-07-29T07:36:14;99901.78;;;23.49;76.34
50368;BME280;36281;34.132;-118.018;2023-07-29T07:38:45;99908.00;;;23.50;76.16
50368;BME280;36281;34.132;-118.018;2023-07-29T07:41:15;99911.59;;;23.45;76.73
50368;BME280;36281;34.132;-118.018;2023-07-29T07:43:43;99911.00;;;23.48;76.35
50368;BME280;36281;34.132;-118.018;2023-07-29T07:46:12;99894.00;;;23.47;76.25
50368;BME280;36281;34.132;-118.018;2023-07-29T07:48:41;99897.78;;;23.46;76.50
50368;BME280;36281;34.132;-118.018;2023-07-29T07:51:11;99895.38;;;23.45;76.59
50368;BME280;36281;34.132;-118.018;2023-07-29T07:53:40;99890.13;;;23.35;76.44
50368;BME280;36281;34.132;-118.018;2023-07-29T07:56:12;99891.75;;;23.36;77.13
50368;BME280;36281;34.132;-118.018;2023-07-29T07:58:41;99884.31;;;23.28;77.05
50368;BME280;36281;34.132;-118.018;2023-07-29T08:01:10;99885.63;;;23.30;77.33
50368;BME280;36281;34.132;-118.018;2023-07-29T08:03:40;99877.59;;;23.25;77.26
50368;BME280;36281;34.132;-118.018;2023-07-29T08:06:09;99871.69;;;23.23;77.41
50368;BME280;36281;34.132;-118.018;2023-07-29T08:08:38;99882.28;;;23.19;77.70
50368;BME280;36281;34.132;-118.018;2023-07-29T08:11:07;99877.47;;;23.16;77.93
50368;BME280;36281;34.132;-118.018;2023-07-29T08:13:38;99874.56;;;23.13;77.88
50368;BME280;36281;34.132;-118.018;2023-07-29T08:16:06;99888.34;;;23.11;78.19
50368;BME280;36281;34.132;-118.018;2023-07-29T08:18:35;99887.63;;;23.06;78.12
50368;BME280;36281;34.132;-118.018;2023-07-29T08:21:04;99882.00;;;23.02;78.57
50368;BME280;36281;34.132;-118.018;2023-07-29T08:23:35;99895.22;;;23.04;78.71
50368;BME280;36281;34.132;-118.018;2023-07-29T08:26:05;99896.53;;;23.06;78.62
50368;BME280;36281;34.132;-118.018;2023-07-29T08:28:37;99895.44;;;23.07;78.81
50368;BME280;36281;34.132;-118.018;2023-07-29T08:31:07;99900.84;;;23.07;78.81
50368;BME280;36281;34.132;-118.018;2023-07-29T08:33:36;99896.25;;;23.08;78.91
50368;BME280;36281;34.132;-118.018;2023-07-29T08:36:05;99895.94;;;23.09;78.53
50368;BME280;36281;34.132;-118.018;2023-07-29T08:38:34;99898.66;;;23.09;78.52
50368;BME280;36281;34.132;-118.018;2023-07-29T08:41:12;99905.16;;;23.08;78.50
50368;BME280;36281;34.132;-118.018;2023-07-29T08:43:47;99894.13;;;23.05;78.49
50368;BME280;36281;34.132;-118.018;2023-07-29T08:46:19;99884.22;;;23.00;78.59
50368;BME280;36281;34.132;-118.018;2023-07-29T08:48:50;99884.78;;;22.97;78.97
50368;BME280;36281;34.132;-118.018;2023-07-29T08:51:20;99877.91;;;22.86;79.42
50368;BME280;36281;34.132;-118.018;2023-07-29T08:53:50;99877.97;;;22.81;79.80
50368;BME280;36281;34.132;-118.018;2023-07-29T08:56:19;99879.88;;;22.80;79.69
50368;BME280;36281;34.132;-118.018;2023-07-29T08:58:50;99878.59;;;22.78;79.94
50368;BME280;36281;34.132;-118.018;2023-07-29T09:01:20;99871.84;;;22.75;80.27
50368;BME280;36281;34.132;-118.018;2023-07-29T09:03:49;99882.09;;;22.78;80.20
50368;BME280;36281;34.132;-118.018;2023-07-29T09:06:18;99871.56;;;22.77;80.06
50368;BME280;36281;34.132;-118.018;2023-07-29T09:08:49;99878.06;;;22.76;80.26
50368;BME280;36281;34.132;-118.018;2023-07-29T09:11:22;99872.16;;;22.74;80.65
50368;BME280;36281;34.132;-118.018;2023-07-29T09:13:54;99871.94;;;22.70;80.70
50368;BME280;36281;34.132;-118.018;2023-07-29T09:16:23;99868.19;;;22.66;80.86
50368;BME280;36281;34.132;-118.018;2023-07-29T09:18:53;99869.38;;;22.60;81.29
50368;BME280;36281;34.132;-118.018;2023-07-29T09:21:24;99869.16;;;22.56;81.59
50368;BME280;36281;34.132;-118.018;2023-07-29T09:23:57;99869.66;;;22.58;81.70
50368;BME280;36281;34.132;-118.018;2023-07-29T09:26:30;99865.66;;;22.56;81.61
50368;BME280;36281;34.132;-118.018;2023-07-29T09:29:01;99862.44;;;22.54;81.61
50368;BME280;36281;34.132;-118.018;2023-07-29T09:31:31;99864.03;;;22.55;81.53
50368;BME280;36281;34.132;-118.018;2023-07-29T09:34:01;99859.75;;;22.54;81.88
50368;BME280;36281;34.132;-118.018;2023-07-29T09:36:31;99856.81;;;22.50;81.76
50368;BME280;36281;34.132;-118.018;2023-07-29T09:39:02;99861.91;;;22.52;81.98
50368;BME280;36281;34.132;-118.018;2023-07-29T09:41:32;99860.00;;;22.52;81.91
50368;BME280;36281;34.132;-118.018;2023-07-29T09:44:04;99856.50;;;22.52;81.69
50368;BME280;36281;34.132;-118.018;2023-07-29T09:46:34;99864.03;;;22.55;81.59
50368;BME280;36281;34.132;-118.018;2023-07-29T09:49:04;99865.41;;;22.52;81.82
50368;BME280;36281;34.132;-118.018;2023-07-29T09:51:38;99849.59;;;22.45;82.11
50368;BME280;36281;34.132;-118.018;2023-07-29T09:54:09;99854.13;;;22.50;82.26
50368;BME280;36281;34.132;-118.018;2023-07-29T09:56:42;99853.69;;;22.43;81.93
50368;BME280;36281;34.132;-118.018;2023-07-29T09:59:19;99865.84;;;22.40;82.26
50368;BME280;36281;34.132;-118.018;2023-07-29T10:01:48;99860.75;;;22.39;82.47
50368;BME280;36281;34.132;-118.018;2023-07-29T10:04:17;99851.31;;;22.36;82.68
50368;BME280;36281;34.132;-118.018;2023-07-29T10:06:47;99855.91;;;22.36;82.86
50368;BME280;36281;34.132;-118.018;2023-07-29T10:09:17;99851.69;;;22.30;82.98
50368;BME280;36281;34.132;-118.018;2023-07-29T10:11:48;99852.78;;;22.29;82.94
50368;BME280;36281;34.132;-118.018;2023-07-29T10:14:21;99851.47;;;22.26;83.27
50368;BME280;36281;34.132;-118.018;2023-07-29T10:16:51;99843.38;;;22.26;83.24
50368;BME280;36281;34.132;-118.018;2023-07-29T10:19:20;99845.75;;;22.28;83.36
50368;BME280;36281;34.132;-118.018;2023-07-29T10:21:51;99839.38;;;22.24;83.76
50368;BME280;36281;34.132;-118.018;2023-07-29T10:24:24;99842.34;;;22.22;83.49
50368;BME280;36281;34.132;-118.018;2023-07-29T10:26:59;99833.16;;;22.23;83.18
50368;BME280;36281;34.132;-118.018;2023-07-29T10:29:31;99829.94;;;22.21;83.30
50368;BME280;36281;34.132;-118.018;2023-07-29T10:32:05;99837.53;;;22.19;83.48
50368;BME280;36281;34.132;-118.018;2023-07-29T10:34:34;99829.50;;;22.14;84.10
50368;BME280;36281;34.132;-118.018;2023-07-29T10:37:05;99831.13;;;22.10;84.35
50368;BME280;36281;34.132;-118.018;2023-07-29T10:39:40;99825.47;;;22.11;84.35
50368;BME280;36281;34.132;-118.018;2023-07-29T10:42:10;99826.53;;;22.10;84.57
50368;BME280;36281;34.132;-118.018;2023-07-29T10:44:51;99828.44;;;22.10;84.38
50368;BME280;36281;34.132;-118.018;2023-07-29T10:47:25;99833.56;;;22.11;84.66
50368;BME280;36281;34.132;-118.018;2023-07-29T10:49:55;99837.88;;;22.12;84.49
50368;BME280;36281;34.132;-118.018;2023-07-29T10:52:39;99840.03;;;22.10;84.49
50368;BME280;36281;34.132;-118.018;2023-07-29T10:55:29;99843.25;;;22.12;84.33
50368;BME280;36281;34.132;-118.018;2023-07-29T10:58:11;99846.53;;;22.09;84.34
50368;BME280;36281;34.132;-118.018;2023-07-29T11:00:44;99847.88;;;22.07;84.55
50368;BME280;36281;34.132;-118.018;2023-07-29T11:03:14;99847.88;;;22.07;84.45
50368;BME280;36281;34.132;-118.018;2023-07-29T11:05:48;99849.78;;;22.06;84.43
50368;BME280;36281;34.132;-118.018;2023-07-29T11:08:22;99848.19;;;22.05;84.22
50368;BME280;36281;34.132;-118.018;2023-07-29T11:11:05;99843.09;;;22.04;84.50
50368;BME280;36281;34.132;-118.018;2023-07-29T11:13:35;99846.06;;;22.02;84.75
50368;BME280;36281;34.132;-118.018;2023-07-29T11:16:06;99844.44;;;22.01;84.84
50368;BME280;36281;34.132;-118.018;2023-07-29T11:18:35;99854.13;;;22.02;84.94
50368;BME280;36281;34.132;-118.018;2023-07-29T11:21:05;99843.94;;;21.99;85.22
50368;BME280;36281;34.132;-118.018;2023-07-29T11:23:35;99838.31;;;21.96;85.33
50368;BME280;36281;34.132;-118.018;2023-07-29T11:26:05;99831.81;;;21.97;85.43
50368;BME280;36281;34.132;-118.018;2023-07-29T11:28:38;99834.03;;;21.94;85.47
50368;BME280;36281;34.132;-118.018;2023-07-29T11:31:10;99828.94;;;21.93;85.46
50368;BME280;36281;34.132;-118.018;2023-07-29T11:33:39;99834.88;;;21.90;85.41
50368;BME280;36281;34.132;-118.018;2023-07-29T11:36:18;99840.84;;;21.87;85.88
50368;BME280;36281;34.132;-118.018;2023-07-29T11:38:48;99847.31;;;21.86;86.10
50368;BME280;36281;34.132;-118.018;2023-07-29T11:41:20;99843.31;;;21.83;86.40
50368;BME280;36281;34.132;-118.018;2023-07-29T11:43:50;99856.56;;;21.80;86.38
50368;BME280;36281;34.132;-118.018;2023-07-29T11:46:23;99857.81;;;21.63;86.65
50368;BME280;36281;34.132;-118.018;2023-07-29T11:48:54;99861.88;;;21.61;87.16
50368;BME280;36281;34.132;-118.018;2023-07-29T11:51:23;99875.34;;;21.61;87.26
50368;BME280;36281;34.132;-118.018;2023-07-29T11:53:54;99875.81;;;21.68;87.05
50368;BME280;36281;34.132;-118.018;2023-07-29T11:56:24;99870.72;;;21.66;86.77
50368;BME280;36281;34.132;-118.018;2023-07-29T11:58:54;99879.03;;;21.70;86.91
50368;BME280;36281;34.132;-118.018;2023-07-29T12:01:25;99896.00;;;21.71;87.32
50368;BME280;36281;34.132;-118.018;2023-07-29T12:03:55;99896.81;;;21.71;87.63
50368;BME280;36281;34.132;-118.018;2023-07-29T12:06:24;99896.81;;;21.71;87.47
50368;BME280;36281;34.132;-118.018;2023-07-29T12:08:54;99893.31;;;21.71;87.30
50368;BME280;36281;34.132;-118.018;2023-07-29T12:11:23;99899.50;;;21.71;87.60
50368;BME280;36281;34.132;-118.018;2023-07-29T12:13:54;99896.31;;;21.69;87.43
50368;BME280;36281;34.132;-118.018;2023-07-29T12:16:24;99885.56;;;21.64;87.82
50368;BME280;36281;34.132;-118.018;2023-07-29T12:18:53;99886.94;;;21.61;87.68
50368;BME280;36281;34.132;-118.018;2023-07-29T12:21:22;99892.59;;;21.60;88.01
50368;BME280;36281;34.132;-118.018;2023-07-29T12:23:51;99896.97;;;21.56;88.42
50368;BME280;36281;34.132;-118.018;2023-07-29T12:26:20;99901.31;;;21.52;88.91
50368;BME280;36281;34.132;-118.018;2023-07-29T12:28:49;99911.31;;;21.46;89.32
50368;BME280;36281;34.132;-118.018;2023-07-29T12:31:19;99913.22;;;21.46;89.73
50368;BME280;36281;34.132;-118.018;2023-07-29T12:33:56;99922.44;;;21.39;89.78
50368;BME280;36281;34.132;-118.018;2023-07-29T12:36:40;99925.38;;;21.38;89.70
50368;BME280;36281;34.132;-118.018;2023-07-29T12:39:20;99919.75;;;21.39;89.66
50368;BME280;36281;34.132;-118.018;2023-07-29T12:41:51;99922.66;;;21.43;89.79
50368;BME280;36281;34.132;-118.018;2023-07-29T12:44:20;99923.19;;;21.45;89.65
50368;BME280;36281;34.132;-118.018;2023-07-29T12:46:51;99924.00;;;21.46;89.42
50368;BME280;36281;34.132;-118.018;2023-07-29T12:49:22;99925.88;;;21.45;89.67
50368;BME280;36281;34.132;-118.018;2023-07-29T12:51:51;99923.19;;;21.45;90.00
50368;BME280;36281;34.132;-118.018;2023-07-29T12:54:20;99922.66;;;21.43;89.84
50368;BME280;36281;34.132;-118.018;2023-07-29T12:56:49;99918.34;;;21.42;90.08
50368;BME280;36281;34.132;-118.018;2023-07-29T12:59:18;99921.06;;;21.42;89.81
50368;BME280;36281;34.132;-118.018;2023-07-29T13:01:47;99913.53;;;21.39;89.68